sensor_id;sensor_type;location;lat;lon;timestamp;P1;durP1;ratioP1;P2;durP2;ratioP2
79284;SDS011;68734;50.452;11.636;2023-09-19T00:00:36;3.05;;;1.70;;
79284;SDS011;68734;50.452;11.636;2023-09-19T00:03:02;4.35;;;2.10;;
79284;SDS011;68734;50.452;11.636;2023-09-19T00:05:29;3.42;;;1.95;;
79284;SDS011;68734;50.452;11.636;2023-09-19T00:08:00;3.80;;;1.98;;
79284;SDS011;68734;50.452;11.636;2023-09-19T00:10:26;3.05;;;2.13;;
79284;SDS011;68734;50.452;11.636;2023-09-19T00:12:59;4.43;;;2.00;;
79284;SDS011;68734;50.452;11.636;2023-09-19T00:15:27;4.68;;;1.88;;
79284;SDS011;68734;50.452;11.636;2023-09-19T00:17:56;2.30;;;1.38;;
79284;SDS011;68734;50.452;11.636;2023-09-19T00:20:22;3.20;;;1.52;;
79284;SDS011;68734;50.452;11.636;2023-09-19T00:22:49;4.13;;;1.67;;
79284;SDS011;68734;50.452;11.636;2023-09-19T00:25:18;4.07;;;1.45;;
79284;SDS011;68734;50.452;11.636;2023-09-19T00:27:51;2.85;;;1.13;;
79284;SDS011;68734;50.452;11.636;2023-09-19T00:30:17;2.13;;;1.58;;
79284;SDS011;68734;50.452;11.636;2023-09-19T00:32:46;2.75;;;1.85;;
79284;SDS011;68734;50.452;11.636;2023-09-19T00:35:15;4.40;;;1.58;;
79284;SDS011;68734;50.452;11.636;2023-09-19T00:37:41;2.25;;;1.50;;
79284;SDS011;68734;50.452;11.636;2023-09-19T00:40:08;3.50;;;1.95;;
79284;SDS011;68734;50.452;11.636;2023-09-19T00:42:37;4.03;;;1.35;;
79284;SDS011;68734;50.452;11.636;2023-09-19T00:45:04;2.70;;;1.98;;
79284;SDS011;68734;50.452;11.636;2023-09-19T00:47:31;2.17;;;1.38;;
79284;SDS011;68734;50.452;11.636;2023-09-19T00:49:56;2.92;;;1.60;;
79284;SDS011;68734;50.452;11.636;2023-09-19T00:52:22;3.45;;;1.67;;
79284;SDS011;68734;50.452;11.636;2023-09-19T00:54:48;2.63;;;1.60;;
79284;SDS011;68734;50.452;11.636;2023-09-19T00:57:14;3.38;;;1.55;;
79284;SDS011;68734;50.452;11.636;2023-09-19T00:59:40;2.58;;;2.10;;
79284;SDS011;68734;50.452;11.636;2023-09-19T01:02:08;2.25;;;1.65;;
79284;SDS011;68734;50.452;11.636;2023-09-19T01:04:34;2.05;;;1.20;;
79284;SDS011;68734;50.452;11.636;2023-09-19T01:07:00;2.13;;;1.50;;
79284;SDS011;68734;50.452;11.636;2023-09-19T01:09:26;1.67;;;1.30;;
79284;SDS011;68734;50.452;11.636;2023-09-19T01:11:53;2.97;;;1.45;;
79284;SDS011;68734;50.452;11.636;2023-09-19T01:14:38;2.88;;;1.15;;
79284;SDS011;68734;50.452;11.636;2023-09-19T01:17:12;4.03;;;1.55;;
79284;SDS011;68734;50.452;11.636;2023-09-19T01:30:38;2.85;;;1.50;;
79284;SDS011;68734;50.452;11.636;2023-09-19T01:33:10;3.55;;;1.70;;
79284;SDS011;68734;50.452;11.636;2023-09-19T01:35:39;4.32;;;1.55;;
79284;SDS011;68734;50.452;11.636;2023-09-19T01:38:06;2.03;;;1.38;;
79284;SDS011;68734;50.452;11.636;2023-09-19T01:40:35;2.33;;;1.85;;
79284;SDS011;68734;50.452;11.636;2023-09-19T01:43:26;2.13;;;1.17;;
79284;SDS011;68734;50.452;11.636;2023-09-19T01:51:06;3.45;;;1.80;;
79284;SDS011;68734;50.452;11.636;2023-09-19T01:56:07;4.13;;;1.48;;
79284;SDS011;68734;50.452;11.636;2023-09-19T01:58:39;3.33;;;1.67;;
79284;SDS011;68734;50.452;11.636;2023-09-19T02:01:16;4.10;;;1.67;;
79284;SDS011;68734;50.452;11.636;2023-09-19T02:03:45;2.30;;;1.63;;
79284;SDS011;68734;50.452;11.636;2023-09-19T02:06:15;2.65;;;1.40;;
79284;SDS011;68734;50.452;11.636;2023-09-19T02:08:42;5.07;;;1.50;;
79284;SDS011;68734;50.452;11.636;2023-09-19T02:11:08;3.53;;;1.58;;
79284;SDS011;68734;50.452;11.636;2023-09-19T02:13:36;2.58;;;1.33;;
79284;SDS011;68734;50.452;11.636;2023-09-19T02:16:01;2.50;;;1.42;;
79284;SDS011;68734;50.452;11.636;2023-09-19T02:18:29;1.65;;;1.27;;
79284;SDS011;68734;50.452;11.636;2023-09-19T02:20:55;3.65;;;1.33;;
79284;SDS011;68734;50.452;11.636;2023-09-19T02:23:23;4.57;;;1.40;;
79284;SDS011;68734;50.452;11.636;2023-09-19T02:25:53;1.85;;;1.27;;
79284;SDS011;68734;50.452;11.636;2023-09-19T02:28:18;3.08;;;0.98;;
79284;SDS011;68734;50.452;11.636;2023-09-19T02:30:47;2.78;;;1.42;;
79284;SDS011;68734;50.452;11.636;2023-09-19T02:33:13;3.63;;;1.42;;
79284;SDS011;68734;50.452;11.636;2023-09-19T02:35:39;2.35;;;0.93;;
79284;SDS011;68734;50.452;11.636;2023-09-19T02:38:05;2.70;;;1.00;;
79284;SDS011;68734;50.452;11.636;2023-09-19T02:40:32;2.55;;;1.73;;
79284;SDS011;68734;50.452;11.636;2023-09-19T02:43:00;3.72;;;1.15;;
79284;SDS011;68734;50.452;11.636;2023-09-19T02:45:27;2.15;;;1.13;;
79284;SDS011;68734;50.452;11.636;2023-09-19T02:47:53;5.38;;;1.20;;
79284;SDS011;68734;50.452;11.636;2023-09-19T02:50:19;3.63;;;1.00;;
79284;SDS011;68734;50.452;11.636;2023-09-19T02:52:48;2.80;;;1.38;;
79284;SDS011;68734;50.452;11.636;2023-09-19T02:55:14;2.97;;;1.10;;
79284;SDS011;68734;50.452;11.636;2023-09-19T02:57:45;1.70;;;0.88;;
79284;SDS011;68734;50.452;11.636;2023-09-19T03:00:14;1.90;;;1.00;;
79284;SDS011;68734;50.452;11.636;2023-09-19T03:02:40;1.30;;;0.80;;
79284;SDS011;68734;50.452;11.636;2023-09-19T03:05:06;3.22;;;1.20;;
79284;SDS011;68734;50.452;11.636;2023-09-19T03:07:33;2.50;;;1.05;;
79284;SDS011;68734;50.452;11.636;2023-09-19T03:10:02;2.25;;;1.17;;
79284;SDS011;68734;50.452;11.636;2023-09-19T03:12:28;1.85;;;1.23;;
79284;SDS011;68734;50.452;11.636;2023-09-19T03:14:54;4.35;;;1.33;;
79284;SDS011;68734;50.452;11.636;2023-09-19T03:17:20;1.60;;;0.88;;
79284;SDS011;68734;50.452;11.636;2023-09-19T03:19:46;1.73;;;1.08;;
79284;SDS011;68734;50.452;11.636;2023-09-19T03:22:15;1.92;;;1.00;;
79284;SDS011;68734;50.452;11.636;2023-09-19T03:24:40;2.35;;;1.30;;
79284;SDS011;68734;50.452;11.636;2023-09-19T03:27:08;3.17;;;1.58;;
79284;SDS011;68734;50.452;11.636;2023-09-19T03:29:43;4.85;;;1.63;;
79284;SDS011;68734;50.452;11.636;2023-09-19T03:32:08;1.33;;;1.08;;
79284;SDS011;68734;50.452;11.636;2023-09-19T03:34:37;1.90;;;1.30;;
79284;SDS011;68734;50.452;11.636;2023-09-19T03:37:07;3.95;;;1.10;;
79284;SDS011;68734;50.452;11.636;2023-09-19T03:39:35;2.35;;;1.30;;
79284;SDS011;68734;50.452;11.636;2023-09-19T03:42:01;8.55;;;1.52;;
79284;SDS011;68734;50.452;11.636;2023-09-19T03:44:30;1.55;;;1.13;;
79284;SDS011;68734;50.452;11.636;2023-09-19T03:46:56;1.75;;;1.10;;
79284;SDS011;68734;50.452;11.636;2023-09-19T03:49:22;2.78;;;1.27;;
79284;SDS011;68734;50.452;11.636;2023-09-19T03:51:48;4.72;;;1.40;;
79284;SDS011;68734;50.452;11.636;2023-09-19T03:54:13;2.90;;;1.48;;
79284;SDS011;68734;50.452;11.636;2023-09-19T03:56:39;2.15;;;1.63;;
79284;SDS011;68734;50.452;11.636;2023-09-19T03:59:04;2.47;;;1.60;;
79284;SDS011;68734;50.452;11.636;2023-09-19T04:01:30;2.38;;;1.70;;
79284;SDS011;68734;50.452;11.636;2023-09-19T04:03:57;2.38;;;1.35;;
79284;SDS011;68734;50.452;11.636;2023-09-19T04:06:23;3.72;;;1.30;;
79284;SDS011;68734;50.452;11.636;2023-09-19T04:08:48;3.47;;;1.73;;
79284;SDS011;68734;50.452;11.636;2023-09-19T04:11:14;3.08;;;1.17;;
79284;SDS011;68734;50.452;11.636;2023-09-19T04:13:39;2.17;;;1.08;;
79284;SDS011;68734;50.452;11.636;2023-09-19T04:16:05;2.65;;;0.98;;
79284;SDS011;68734;50.452;11.636;2023-09-19T04:18:33;2.70;;;1.55;;
79284;SDS011;68734;50.452;11.636;2023-09-19T04:21:02;2.92;;;1.55;;
79284;SDS011;68734;50.452;11.636;2023-09-19T04:23:29;1.92;;;1.40;;
79284;SDS011;68734;50.452;11.636;2023-09-19T04:25:54;1.25;;;1.08;;
79284;SDS011;68734;50.452;11.636;2023-09-19T04:28:20;2.38;;;0.93;;
79284;SDS011;68734;50.452;11.636;2023-09-19T04:30:45;2.08;;;1.30;;
79284;SDS011;68734;50.452;11.636;2023-09-19T04:33:11;3.28;;;1.48;;
79284;SDS011;68734;50.452;11.636;2023-09-19T04:35:39;2.45;;;1.02;;
79284;SDS011;68734;50.452;11.636;2023-09-19T04:38:07;2.42;;;1.25;;
79284;SDS011;68734;50.452;11.636;2023-09-19T04:40:32;1.63;;;1.20;;
79284;SDS011;68734;50.452;11.636;2023-09-19T04:42:59;3.05;;;1.80;;
79284;SDS011;68734;50.452;11.636;2023-09-19T04:45:28;2.13;;;1.40;;
79284;SDS011;68734;50.452;11.636;2023-09-19T04:47:54;3.95;;;1.60;;
79284;SDS011;68734;50.452;11.636;2023-09-19T04:50:21;4.05;;;1.23;;
79284;SDS011;68734;50.452;11.636;2023-09-19T04:52:51;2.55;;;1.50;;
79284;SDS011;68734;50.452;11.636;2023-09-19T04:55:17;2.75;;;1.17;;
79284;SDS011;68734;50.452;11.636;2023-09-19T04:57:44;2.22;;;1.67;;
79284;SDS011;68734;50.452;11.636;2023-09-19T05:00:13;2.22;;;1.35;;
79284;SDS011;68734;50.452;11.636;2023-09-19T05:02:45;2.55;;;1.30;;
79284;SDS011;68734;50.452;11.636;2023-09-19T05:05:11;2.70;;;1.60;;
79284;SDS011;68734;50.452;11.636;2023-09-19T05:07:41;2.78;;;2.22;;
79284;SDS011;68734;50.452;11.636;2023-09-19T05:10:08;3.35;;;1.58;;
79284;SDS011;68734;50.452;11.636;2023-09-19T05:12:34;2.05;;;1.50;;
79284;SDS011;68734;50.452;11.636;2023-09-19T05:15:00;4.30;;;1.98;;
79284;SDS011;68734;50.452;11.636;2023-09-19T05:17:35;5.85;;;1.98;;
79284;SDS011;68734;50.452;11.636;2023-09-19T05:20:01;2.60;;;2.00;;
79284;SDS011;68734;50.452;11.636;2023-09-19T05:22:40;2.05;;;1.63;;
79284;SDS011;68734;50.452;11.636;2023-09-19T05:25:06;2.90;;;1.70;;
79284;SDS011;68734;50.452;11.636;2023-09-19T05:27:32;2.10;;;1.40;;
79284;SDS011;68734;50.452;11.636;2023-09-19T05:29:58;5.63;;;1.88;;
79284;SDS011;68734;50.452;11.636;2023-09-19T05:32:24;3.35;;;1.83;;
79284;SDS011;68734;50.452;11.636;2023-09-19T05:34:49;4.40;;;1.42;;
79284;SDS011;68734;50.452;11.636;2023-09-19T05:37:18;4.38;;;1.63;;
79284;SDS011;68734;50.452;11.636;2023-09-19T05:39:44;1.70;;;1.25;;
79284;SDS011;68734;50.452;11.636;2023-09-19T05:42:09;4.93;;;1.42;;
79284;SDS011;68734;50.452;11.636;2023-09-19T05:44:35;2.88;;;1.75;;
79284;SDS011;68734;50.452;11.636;2023-09-19T05:47:01;2.10;;;1.20;;
79284;SDS011;68734;50.452;11.636;2023-09-19T05:49:28;3.38;;;1.58;;
79284;SDS011;68734;50.452;11.636;2023-09-19T05:51:56;3.22;;;1.40;;
79284;SDS011;68734;50.452;11.636;2023-09-19T05:54:23;2.47;;;1.35;;
79284;SDS011;68734;50.452;11.636;2023-09-19T05:56:49;3.08;;;1.33;;
79284;SDS011;68734;50.452;11.636;2023-09-19T05:59:17;2.70;;;0.90;;
79284;SDS011;68734;50.452;11.636;2023-09-19T06:01:43;4.90;;;1.10;;
79284;SDS011;68734;50.452;11.636;2023-09-19T06:04:08;2.85;;;1.63;;
79284;SDS011;68734;50.452;11.636;2023-09-19T06:06:34;3.88;;;1.75;;
79284;SDS011;68734;50.452;11.636;2023-09-19T06:09:03;3.08;;;1.27;;
79284;SDS011;68734;50.452;11.636;2023-09-19T06:11:31;3.95;;;1.00;;
79284;SDS011;68734;50.452;11.636;2023-09-19T06:13:59;0.90;;;0.80;;
79284;SDS011;68734;50.452;11.636;2023-09-19T06:16:27;2.88;;;1.15;;
79284;SDS011;68734;50.452;11.636;2023-09-19T06:18:53;4.07;;;1.40;;
79284;SDS011;68734;50.452;11.636;2023-09-19T06:21:21;1.27;;;0.93;;
79284;SDS011;68734;50.452;11.636;2023-09-19T06:23:47;3.38;;;1.25;;
79284;SDS011;68734;50.452;11.636;2023-09-19T06:26:12;2.95;;;0.93;;
79284;SDS011;68734;50.452;11.636;2023-09-19T06:28:38;3.35;;;1.23;;
79284;SDS011;68734;50.452;11.636;2023-09-19T06:31:03;2.35;;;1.10;;
79284;SDS011;68734;50.452;11.636;2023-09-19T06:33:33;1.65;;;1.10;;
79284;SDS011;68734;50.452;11.636;2023-09-19T06:35:58;2.45;;;1.10;;
79284;SDS011;68734;50.452;11.636;2023-09-19T06:38:24;3.00;;;1.50;;
79284;SDS011;68734;50.452;11.636;2023-09-19T06:40:52;2.05;;;1.02;;
79284;SDS011;68734;50.452;11.636;2023-09-19T06:43:18;1.90;;;1.15;;
79284;SDS011;68734;50.452;11.636;2023-09-19T06:45:43;1.88;;;1.15;;
79284;SDS011;68734;50.452;11.636;2023-09-19T06:48:11;2.00;;;1.00;;
79284;SDS011;68734;50.452;11.636;2023-09-19T06:50:37;1.25;;;0.80;;
79284;SDS011;68734;50.452;11.636;2023-09-19T06:53:03;1.95;;;1.02;;
79284;SDS011;68734;50.452;11.636;2023-09-19T06:55:29;1.95;;;1.05;;
79284;SDS011;68734;50.452;11.636;2023-09-19T06:57:57;2.42;;;0.90;;
79284;SDS011;68734;50.452;11.636;2023-09-19T07:00:23;6.70;;;1.00;;
79284;SDS011;68734;50.452;11.636;2023-09-19T07:05:23;1.00;;;0.70;;
79284;SDS011;68734;50.452;11.636;2023-09-19T07:07:52;1.20;;;0.63;;
79284;SDS011;68734;50.452;11.636;2023-09-19T07:10:19;1.13;;;0.50;;
79284;SDS011;68734;50.452;11.636;2023-09-19T07:12:52;0.95;;;0.70;;
79284;SDS011;68734;50.452;11.636;2023-09-19T07:15:22;2.47;;;0.80;;
79284;SDS011;68734;50.452;11.636;2023-09-19T07:17:50;1.77;;;0.80;;
79284;SDS011;68734;50.452;11.636;2023-09-19T07:20:17;1.90;;;1.08;;
79284;SDS011;68734;50.452;11.636;2023-09-19T07:22:43;1.33;;;0.70;;
79284;SDS011;68734;50.452;11.636;2023-09-19T07:25:09;1.92;;;0.75;;
79284;SDS011;68734;50.452;11.636;2023-09-19T07:27:34;1.30;;;0.80;;
79284;SDS011;68734;50.452;11.636;2023-09-19T07:30:00;3.20;;;0.65;;
79284;SDS011;68734;50.452;11.636;2023-09-19T07:32:25;1.00;;;0.70;;
79284;SDS011;68734;50.452;11.636;2023-09-19T07:34:50;1.40;;;0.65;;
79284;SDS011;68734;50.452;11.636;2023-09-19T07:37:16;2.08;;;0.50;;
79284;SDS011;68734;50.452;11.636;2023-09-19T07:39:42;0.63;;;0.50;;
79284;SDS011;68734;50.452;11.636;2023-09-19T07:42:08;1.08;;;0.80;;
79284;SDS011;68734;50.452;11.636;2023-09-19T07:44:36;1.20;;;0.70;;
79284;SDS011;68734;50.452;11.636;2023-09-19T07:47:02;2.15;;;1.00;;
79284;SDS011;68734;50.452;11.636;2023-09-19T07:49:28;1.60;;;0.80;;
79284;SDS011;68734;50.452;11.636;2023-09-19T07:51:54;2.60;;;0.77;;
79284;SDS011;68734;50.452;11.636;2023-09-19T07:54:19;0.77;;;0.52;;
79284;SDS011;68734;50.452;11.636;2023-09-19T07:56:46;1.08;;;0.70;;
79284;SDS011;68734;50.452;11.636;2023-09-19T07:59:14;2.30;;;0.70;;
79284;SDS011;68734;50.452;11.636;2023-09-19T08:01:40;2.35;;;0.60;;
79284;SDS011;68734;50.452;11.636;2023-09-19T08:04:07;1.48;;;0.60;;
79284;SDS011;68734;50.452;11.636;2023-09-19T08:06:32;2.40;;;0.90;;
79284;SDS011;68734;50.452;11.636;2023-09-19T08:08:58;2.90;;;0.68;;
79284;SDS011;68734;50.452;11.636;2023-09-19T08:11:25;2.28;;;0.60;;
79284;SDS011;68734;50.452;11.636;2023-09-19T08:13:55;0.75;;;0.50;;
79284;SDS011;68734;50.452;11.636;2023-09-19T08:16:21;1.52;;;0.57;;
79284;SDS011;68734;50.452;11.636;2023-09-19T08:18:47;0.98;;;0.70;;
79284;SDS011;68734;50.452;11.636;2023-09-19T08:21:20;1.77;;;0.73;;
79284;SDS011;68734;50.452;11.636;2023-09-19T08:23:46;4.13;;;0.95;;
79284;SDS011;68734;50.452;11.636;2023-09-19T08:26:12;1.45;;;0.70;;
79284;SDS011;68734;50.452;11.636;2023-09-19T08:28:37;0.93;;;0.50;;
79284;SDS011;68734;50.452;11.636;2023-09-19T08:31:08;1.85;;;0.43;;
79284;SDS011;68734;50.452;11.636;2023-09-19T08:33:35;2.00;;;0.90;;
79284;SDS011;68734;50.452;11.636;2023-09-19T08:36:02;2.75;;;0.70;;
79284;SDS011;68734;50.452;11.636;2023-09-19T08:38:33;1.35;;;0.70;;
79284;SDS011;68734;50.452;11.636;2023-09-19T08:41:00;0.70;;;0.50;;
79284;SDS011;68734;50.452;11.636;2023-09-19T08:43:29;1.35;;;0.68;;
79284;SDS011;68734;50.452;11.636;2023-09-19T08:46:03;1.75;;;0.80;;
79284;SDS011;68734;50.452;11.636;2023-09-19T08:48:57;2.13;;;0.80;;
79284;SDS011;68734;50.452;11.636;2023-09-19T08:51:33;2.90;;;0.60;;
79284;SDS011;68734;50.452;11.636;2023-09-19T08:54:09;1.80;;;0.65;;
79284;SDS011;68734;50.452;11.636;2023-09-19T08:56:58;1.92;;;0.60;;
79284;SDS011;68734;50.452;11.636;2023-09-19T08:59:30;1.27;;;0.60;;
79284;SDS011;68734;50.452;11.636;2023-09-19T09:01:56;1.40;;;0.85;;
79284;SDS011;68734;50.452;11.636;2023-09-19T09:04:22;2.05;;;0.77;;
79284;SDS011;68734;50.452;11.636;2023-09-19T09:06:51;1.70;;;0.80;;
79284;SDS011;68734;50.452;11.636;2023-09-19T09:09:20;2.75;;;0.70;;
79284;SDS011;68734;50.452;11.636;2023-09-19T09:11:47;0.80;;;0.60;;
79284;SDS011;68734;50.452;11.636;2023-09-19T09:14:13;1.70;;;0.77;;
79284;SDS011;68734;50.452;11.636;2023-09-19T09:19:10;1.15;;;0.60;;
79284;SDS011;68734;50.452;11.636;2023-09-19T09:21:38;1.40;;;0.70;;
79284;SDS011;68734;50.452;11.636;2023-09-19T09:26:56;1.63;;;0.60;;
79284;SDS011;68734;50.452;11.636;2023-09-19T09:32:26;1.45;;;0.93;;
79284;SDS011;68734;50.452;11.636;2023-09-19T09:34:59;1.58;;;0.65;;
79284;SDS011;68734;50.452;11.636;2023-09-19T09:37:26;1.50;;;0.65;;
79284;SDS011;68734;50.452;11.636;2023-09-19T09:42:44;2.28;;;0.65;;
79284;SDS011;68734;50.452;11.636;2023-09-19T09:45:26;1.45;;;0.85;;
79284;SDS011;68734;50.452;11.636;2023-09-19T09:48:02;2.17;;;0.70;;
79284;SDS011;68734;50.452;11.636;2023-09-19T09:50:32;3.30;;;0.90;;
79284;SDS011;68734;50.452;11.636;2023-09-19T09:53:25;3.50;;;0.85;;
79284;SDS011;68734;50.452;11.636;2023-09-19T09:58:33;1.05;;;0.60;;
79284;SDS011;68734;50.452;11.636;2023-09-19T10:01:00;2.20;;;1.15;;
79284;SDS011;68734;50.452;11.636;2023-09-19T10:03:36;1.35;;;0.60;;
79284;SDS011;68734;50.452;11.636;2023-09-19T10:06:09;2.60;;;1.00;;
79284;SDS011;68734;50.452;11.636;2023-09-19T10:11:36;3.13;;;0.80;;
79284;SDS011;68734;50.452;11.636;2023-09-19T10:14:08;1.83;;;0.70;;
79284;SDS011;68734;50.452;11.636;2023-09-19T10:16:45;1.60;;;0.98;;
79284;SDS011;68734;50.452;11.636;2023-09-19T10:19:15;2.58;;;0.90;;
79284;SDS011;68734;50.452;11.636;2023-09-19T10:21:55;4.88;;;1.13;;
79284;SDS011;68734;50.452;11.636;2023-09-19T10:24:22;6.18;;;1.35;;
79284;SDS011;68734;50.452;11.636;2023-09-19T10:26:50;1.98;;;0.95;;
79284;SDS011;68734;50.452;11.636;2023-09-19T10:29:16;3.00;;;1.00;;
79284;SDS011;68734;50.452;11.636;2023-09-19T10:31:42;4.35;;;1.13;;
79284;SDS011;68734;50.452;11.636;2023-09-19T10:34:14;2.45;;;0.80;;
79284;SDS011;68734;50.452;11.636;2023-09-19T10:36:43;1.42;;;1.10;;
79284;SDS011;68734;50.452;11.636;2023-09-19T10:39:12;2.58;;;1.00;;
79284;SDS011;68734;50.452;11.636;2023-09-19T10:41:43;2.58;;;1.10;;
79284;SDS011;68734;50.452;11.636;2023-09-19T10:44:18;1.92;;;1.20;;
79284;SDS011;68734;50.452;11.636;2023-09-19T10:46:47;1.73;;;0.60;;
79284;SDS011;68734;50.452;11.636;2023-09-19T10:49:13;1.88;;;0.93;;
79284;SDS011;68734;50.452;11.636;2023-09-19T10:51:41;1.35;;;0.80;;
79284;SDS011;68734;50.452;11.636;2023-09-19T10:54:10;4.20;;;1.02;;
79284;SDS011;68734;50.452;11.636;2023-09-19T10:56:41;1.38;;;0.93;;
79284;SDS011;68734;50.452;11.636;2023-09-19T10:59:15;4.32;;;0.98;;
79284;SDS011;68734;50.452;11.636;2023-09-19T11:01:47;5.30;;;1.23;;
79284;SDS011;68734;50.452;11.636;2023-09-19T11:10:09;2.50;;;0.88;;
79284;SDS011;68734;50.452;11.636;2023-09-19T11:15:01;1.83;;;1.10;;
79284;SDS011;68734;50.452;11.636;2023-09-19T11:17:33;2.63;;;1.25;;
79284;SDS011;68734;50.452;11.636;2023-09-19T11:30:37;1.42;;;0.70;;
79284;SDS011;68734;50.452;11.636;2023-09-19T11:35:59;4.75;;;1.15;;
79284;SDS011;68734;50.452;11.636;2023-09-19T11:46:32;4.45;;;1.48;;
79284;SDS011;68734;50.452;11.636;2023-09-19T11:49:05;2.80;;;1.17;;
79284;SDS011;68734;50.452;11.636;2023-09-19T11:51:41;5.18;;;1.55;;
79284;SDS011;68734;50.452;11.636;2023-09-19T11:54:13;7.95;;;1.70;;
79284;SDS011;68734;50.452;11.636;2023-09-19T11:56:43;2.50;;;1.35;;
79284;SDS011;68734;50.452;11.636;2023-09-19T11:59:10;3.78;;;0.90;;
79284;SDS011;68734;50.452;11.636;2023-09-19T12:01:36;3.47;;;1.40;;
79284;SDS011;68734;50.452;11.636;2023-09-19T12:04:11;2.10;;;1.05;;
79284;SDS011;68734;50.452;11.636;2023-09-19T12:06:37;4.70;;;1.55;;
79284;SDS011;68734;50.452;11.636;2023-09-19T12:09:07;1.95;;;0.98;;
79284;SDS011;68734;50.452;11.636;2023-09-19T12:11:42;3.63;;;1.55;;
79284;SDS011;68734;50.452;11.636;2023-09-19T12:14:11;3.40;;;1.20;;
79284;SDS011;68734;50.452;11.636;2023-09-19T12:16:37;2.65;;;1.35;;
79284;SDS011;68734;50.452;11.636;2023-09-19T12:22:01;2.10;;;1.30;;
79284;SDS011;68734;50.452;11.636;2023-09-19T12:24:31;2.70;;;1.42;;
79284;SDS011;68734;50.452;11.636;2023-09-19T12:27:01;4.60;;;1.20;;
79284;SDS011;68734;50.452;11.636;2023-09-19T12:29:31;3.47;;;1.40;;
79284;SDS011;68734;50.452;11.636;2023-09-19T12:32:07;3.53;;;1.60;;
79284;SDS011;68734;50.452;11.636;2023-09-19T12:34:32;7.32;;;1.60;;
79284;SDS011;68734;50.452;11.636;2023-09-19T12:40:03;2.97;;;1.48;;
79284;SDS011;68734;50.452;11.636;2023-09-19T12:42:40;6.70;;;1.42;;
79284;SDS011;68734;50.452;11.636;2023-09-19T12:45:06;2.75;;;1.60;;
79284;SDS011;68734;50.452;11.636;2023-09-19T12:47:34;3.75;;;1.67;;
79284;SDS011;68734;50.452;11.636;2023-09-19T12:50:13;5.43;;;1.67;;
79284;SDS011;68734;50.452;11.636;2023-09-19T12:55:07;3.05;;;1.50;;
79284;SDS011;68734;50.452;11.636;2023-09-19T12:57:44;4.47;;;1.73;;
79284;SDS011;68734;50.452;11.636;2023-09-19T13:00:31;3.33;;;1.58;;
79284;SDS011;68734;50.452;11.636;2023-09-19T13:03:09;2.72;;;1.65;;
79284;SDS011;68734;50.452;11.636;2023-09-19T13:05:50;8.07;;;1.95;;
79284;SDS011;68734;50.452;11.636;2023-09-19T13:08:24;3.85;;;1.42;;
79284;SDS011;68734;50.452;11.636;2023-09-19T13:16:57;5.18;;;2.00;;
79284;SDS011;68734;50.452;11.636;2023-09-19T13:25:35;1.85;;;1.52;;
79284;SDS011;68734;50.452;11.636;2023-09-19T13:28:00;5.25;;;1.73;;
79284;SDS011;68734;50.452;11.636;2023-09-19T13:30:29;4.50;;;1.80;;
79284;SDS011;68734;50.452;11.636;2023-09-19T13:33:10;4.13;;;2.28;;
79284;SDS011;68734;50.452;11.636;2023-09-19T13:35:36;3.17;;;2.00;;
79284;SDS011;68734;50.452;11.636;2023-09-19T13:38:06;5.38;;;2.00;;
79284;SDS011;68734;50.452;11.636;2023-09-19T13:40:36;5.95;;;1.50;;
79284;SDS011;68734;50.452;11.636;2023-09-19T13:43:04;5.90;;;2.63;;
79284;SDS011;68734;50.452;11.636;2023-09-19T13:45:31;6.40;;;1.90;;
79284;SDS011;68734;50.452;11.636;2023-09-19T13:47:57;4.93;;;2.17;;
79284;SDS011;68734;50.452;11.636;2023-09-19T13:50:24;5.30;;;2.22;;
79284;SDS011;68734;50.452;11.636;2023-09-19T13:52:54;2.80;;;1.85;;
79284;SDS011;68734;50.452;11.636;2023-09-19T13:55:20;6.63;;;1.83;;
79284;SDS011;68734;50.452;11.636;2023-09-19T13:57:48;4.38;;;1.50;;
79284;SDS011;68734;50.452;11.636;2023-09-19T14:00:23;2.90;;;1.40;;
79284;SDS011;68734;50.452;11.636;2023-09-19T14:02:48;3.13;;;1.70;;
79284;SDS011;68734;50.452;11.636;2023-09-19T14:05:16;5.13;;;1.73;;
79284;SDS011;68734;50.452;11.636;2023-09-19T14:07:45;4.13;;;2.05;;
79284;SDS011;68734;50.452;11.636;2023-09-19T14:10:11;4.55;;;1.63;;
79284;SDS011;68734;50.452;11.636;2023-09-19T14:12:37;3.47;;;1.65;;
79284;SDS011;68734;50.452;11.636;2023-09-19T14:15:06;3.05;;;1.50;;
79284;SDS011;68734;50.452;11.636;2023-09-19T14:17:33;5.30;;;1.70;;
79284;SDS011;68734;50.452;11.636;2023-09-19T14:19:59;3.70;;;1.40;;
79284;SDS011;68734;50.452;11.636;2023-09-19T14:22:24;3.67;;;1.70;;
79284;SDS011;68734;50.452;11.636;2023-09-19T14:24:49;5.45;;;1.65;;
79284;SDS011;68734;50.452;11.636;2023-09-19T14:27:15;4.60;;;1.83;;
79284;SDS011;68734;50.452;11.636;2023-09-19T14:29:40;3.72;;;1.75;;
79284;SDS011;68734;50.452;11.636;2023-09-19T14:32:06;3.97;;;1.65;;
79284;SDS011;68734;50.452;11.636;2023-09-19T14:34:32;3.45;;;1.73;;
79284;SDS011;68734;50.452;11.636;2023-09-19T14:37:01;6.00;;;1.60;;
79284;SDS011;68734;50.452;11.636;2023-09-19T14:39:27;3.40;;;1.42;;
79284;SDS011;68734;50.452;11.636;2023-09-19T14:41:53;6.15;;;1.60;;
79284;SDS011;68734;50.452;11.636;2023-09-19T14:44:21;4.38;;;1.70;;
79284;SDS011;68734;50.452;11.636;2023-09-19T14:46:47;2.78;;;1.20;;
79284;SDS011;68734;50.452;11.636;2023-09-19T14:49:14;3.10;;;1.45;;
79284;SDS011;68734;50.452;11.636;2023-09-19T14:51:41;2.92;;;1.63;;
79284;SDS011;68734;50.452;11.636;2023-09-19T14:54:09;2.03;;;1.20;;
79284;SDS011;68734;50.452;11.636;2023-09-19T14:56:35;3.45;;;1.33;;
79284;SDS011;68734;50.452;11.636;2023-09-19T14:59:02;7.07;;;1.83;;
79284;SDS011;68734;50.452;11.636;2023-09-19T15:01:29;4.32;;;1.55;;
79284;SDS011;68734;50.452;11.636;2023-09-19T15:03:55;3.40;;;1.35;;
79284;SDS011;68734;50.452;11.636;2023-09-19T15:06:20;2.55;;;1.55;;
79284;SDS011;68734;50.452;11.636;2023-09-19T15:08:48;3.17;;;1.45;;
79284;SDS011;68734;50.452;11.636;2023-09-19T15:11:15;3.30;;;1.50;;
79284;SDS011;68734;50.452;11.636;2023-09-19T15:13:42;2.72;;;1.45;;
79284;SDS011;68734;50.452;11.636;2023-09-19T15:16:09;8.35;;;1.60;;
79284;SDS011;68734;50.452;11.636;2023-09-19T15:18:42;2.88;;;1.63;;
79284;SDS011;68734;50.452;11.636;2023-09-19T15:21:10;4.50;;;2.25;;
79284;SDS011;68734;50.452;11.636;2023-09-19T15:23:40;3.58;;;1.83;;
79284;SDS011;68734;50.452;11.636;2023-09-19T15:26:07;4.30;;;1.70;;
79284;SDS011;68734;50.452;11.636;2023-09-19T15:28:36;3.85;;;1.60;;
79284;SDS011;68734;50.452;11.636;2023-09-19T15:31:03;5.28;;;1.85;;
79284;SDS011;68734;50.452;11.636;2023-09-19T15:33:31;4.45;;;2.00;;
79284;SDS011;68734;50.452;11.636;2023-09-19T15:36:10;4.63;;;1.80;;
79284;SDS011;68734;50.452;11.636;2023-09-19T15:41:29;3.85;;;1.35;;
79284;SDS011;68734;50.452;11.636;2023-09-19T15:43:57;4.38;;;1.50;;
79284;SDS011;68734;50.452;11.636;2023-09-19T15:46:24;5.95;;;1.80;;
79284;SDS011;68734;50.452;11.636;2023-09-19T15:48:52;3.80;;;2.20;;
79284;SDS011;68734;50.452;11.636;2023-09-19T15:51:18;4.28;;;1.77;;
79284;SDS011;68734;50.452;11.636;2023-09-19T15:53:44;2.45;;;1.40;;
79284;SDS011;68734;50.452;11.636;2023-09-19T15:56:17;4.93;;;2.40;;
79284;SDS011;68734;50.452;11.636;2023-09-19T15:58:46;6.00;;;1.75;;
79284;SDS011;68734;50.452;11.636;2023-09-19T16:01:13;8.45;;;2.90;;
79284;SDS011;68734;50.452;11.636;2023-09-19T16:03:39;2.53;;;1.58;;
79284;SDS011;68734;50.452;11.636;2023-09-19T16:06:14;6.45;;;1.83;;
79284;SDS011;68734;50.452;11.636;2023-09-19T16:08:46;4.50;;;1.73;;
79284;SDS011;68734;50.452;11.636;2023-09-19T16:11:14;4.07;;;1.80;;